Time;durP1;ratioP1;P1;durP2;ratioP2;P2;SDS_P1;SDS_P2;PMS_P1;PMS_P2;Temp;Humidity;BMP_temperature;BMP_pressure;BME280_temperature;BME280_humidity;BME280_pressure;Samples;Min_cycle;Max_cycle;Signal;HPM_P1;HPM_P2
2020/12/28 00:00:30;;;;;;;8.52;5.82;;;0.00;69.00;;;;;;5078801;28;20035;-70
2020/12/28 00:02:56;;;;;;;8.43;5.03;;;0.00;68.70;;;;;;5060903;28;20039;-70
2020/12/28 00:05:23;;;;;;;9.95;5.43;;;0.00;69.60;;;;;;5078982;28;20020;-70
2020/12/28 00:07:50;;;;;;;9.65;5.38;;;0.10;68.40;;;;;;5079063;28;20048;-71
2020/12/28 00:10:17;;;;;;;8.55;5.90;;;0.20;68.50;;;;;;5078554;28;20101;-70
2020/12/28 00:12:49;;;;;;;6.55;4.30;;;0.20;69.90;;;;;;5078355;28;20104;-70
2020/12/28 00:15:18;;;;;;;7.47;4.97;;;0.20;69.40;;;;;;5078328;28;20099;-70
2020/12/28 00:17:46;;;;;;;7.47;4.88;;;0.10;68.80;;;;;;5078381;28;20024;-70
2020/12/28 00:20:12;;;;;;;7.03;4.70;;;0.10;68.50;;;;;;5077680;28;20025;-70
2020/12/28 00:22:38;;;;;;;6.68;4.95;;;0.00;69.00;;;;;;5078144;28;20024;-70
2020/12/28 00:25:04;;;;;;;7.60;4.38;;;0.10;69.40;;;;;;5078225;28;20082;-70
2020/12/28 00:27:30;;;;;;;7.25;4.95;;;0.10;70.90;;;;;;5060459;28;20024;-70
2020/12/28 00:29:55;;;;;;;7.47;4.88;;;0.20;69.20;;;;;;5078338;28;20308;-70
2020/12/28 00:32:21;;;;;;;6.82;4.35;;;0.20;69.10;;;;;;5078475;28;20032;-70
2020/12/28 00:34:46;;;;;;;5.82;3.92;;;0.20;68.30;;;;;;5078048;28;20025;-70
2020/12/28 00:37:12;;;;;;;6.47;4.35;;;0.20;68.60;;;;;;5077977;28;20017;-70
2020/12/28 00:39:38;;;;;;;7.25;4.40;;;0.30;68.40;;;;;;5078152;28;20028;-71
2020/12/28 00:42:03;;;;;;;5.93;3.90;;;0.30;68.60;;;;;;5078107;28;20440;-70
2020/12/28 00:44:29;;;;;;;5.50;3.47;;;0.30;68.60;;;;;;5060083;28;20040;-71
2020/12/28 00:46:54;;;;;;;5.22;3.28;;;0.40;66.60;;;;;;5077800;28;20078;-71
2020/12/28 00:49:20;;;;;;;5.28;3.42;;;0.40;65.50;;;;;;5077559;28;20055;-70
2020/12/28 00:51:45;;;;;;;5.40;3.47;;;0.40;64.80;;;;;;5077606;28;20400;-70
2020/12/28 00:54:11;;;;;;;7.05;3.75;;;0.40;64.00;;;;;;5060034;28;20028;-70
2020/12/28 00:56:37;;;;;;;7.28;3.30;;;0.50;64.20;;;;;;5077789;28;20109;-71
2020/12/28 00:59:02;;;;;;;4.38;3.10;;;0.60;64.70;;;;;;5077790;28;20063;-70
2020/12/28 01:01:28;;;;;;;5.20;3.47;;;0.60;64.90;;;;;;5077525;28;20146;-70
2020/12/28 01:03:53;;;;;;;5.32;3.13;;;0.60;64.20;;;;;;5077384;28;20431;-70
2020/12/28 01:06:19;;;;;;;3.78;2.78;;;0.60;61.80;;;;;;5077662;28;20111;-70
2020/12/28 01:08:45;;;;;;;4.30;2.70;;;0.70;62.60;;;;;;5077271;28;20055;-71
2020/12/28 01:11:10;;;;;;;4.32;3.00;;;0.80;63.50;;;;;;5077515;28;20025;-71
2020/12/28 01:13:36;;;;;;;3.17;2.35;;;0.90;65.30;;;;;;5077543;28;20367;-71
2020/12/28 01:16:02;;;;;;;5.57;3.10;;;1.00;64.90;;;;;;5077081;28;20027;-71
2020/12/28 01:18:27;;;;;;;4.68;3.28;;;0.90;63.80;;;;;;5077233;28;20023;-71
2020/12/28 01:20:53;;;;;;;5.13;3.78;;;0.90;65.80;;;;;;5077096;28;20388;-70
2020/12/28 01:23:19;;;;;;;7.88;4.10;;;0.90;65.70;;;;;;5077207;28;20178;-70
2020/12/28 01:25:44;;;;;;;6.03;4.32;;;0.90;64.00;;;;;;5059344;28;20033;-71
2020/12/28 01:28:10;;;;;;;6.25;4.13;;;0.90;65.30;;;;;;5077061;28;20025;-71
2020/12/28 01:30:35;;;;;;;6.32;4.18;;;0.80;68.30;;;;;;5076870;28;20358;-70
2020/12/28 01:33:01;;;;;;;7.10;4.88;;;0.70;68.10;;;;;;5076782;28;20028;-70
2020/12/28 01:35:28;;;;;;;8.73;5.35;;;0.60;69.50;;;;;;5059168;28;20021;-71
2020/12/28 01:37:54;;;;;;;9.07;5.53;;;0.30;70.00;;;;;;5076875;28;20025;-70
2020/12/28 01:40:19;;;;;;;8.70;5.65;;;0.00;71.60;;;;;;5059152;28;20035;-70
2020/12/28 01:42:45;;;;;;;8.45;4.88;;;-0.10;71.60;;;;;;5076783;28;20056;-70
2020/12/28 01:45:11;;;;;;;9.10;4.38;;;0.00;72.20;;;;;;5076741;28;20031;-70
2020/12/28 01:47:39;;;;;;;7.88;4.88;;;0.10;72.10;;;;;;5076804;28;20044;-71
2020/12/28 01:50:05;;;;;;;7.95;5.60;;;0.10;70.20;;;;;;5076743;28;20032;-71
2020/12/28 01:52:30;;;;;;;6.95;4.70;;;0.10;69.60;;;;;;5076694;28;20332;-70
2020/12/28 01:54:57;;;;;;;10.23;5.35;;;0.20;70.50;;;;;;5058894;28;20101;-71
2020/12/28 01:57:23;;;;;;;7.70;5.20;;;0.20;70.00;;;;;;5076971;28;20048;-70
2020/12/28 01:59:48;;;;;;;8.80;5.45;;;0.20;69.30;;;;;;5076646;28;20025;-70
2020/12/28 02:02:18;;;;;;;7.97;4.82;;;0.20;69.60;;;;;;5076896;28;20074;-70
2020/12/28 02:04:44;;;;;;;9.75;5.22;;;0.30;70.10;;;;;;5076587;28;20051;-70
2020/12/28 02:07:11;;;;;;;5.97;4.28;;;0.20;70.30;;;;;;5076601;28;20032;-70
2020/12/28 02:09:36;;;;;;;8.20;5.53;;;0.30;71.40;;;;;;5076624;28;20032;-70
2020/12/28 02:12:02;;;;;;;7.85;4.93;;;0.30;71.90;;;;;;5058758;28;20029;-71
2020/12/28 02:14:28;;;;;;;9.98;6.28;;;0.20;71.60;;;;;;5058732;28;20317;-70
2020/12/28 02:16:54;;;;;;;10.00;5.88;;;0.00;73.30;;;;;;5076849;28;20059;-70
2020/12/28 02:19:20;;;;;;;9.10;6.03;;;0.00;73.70;;;;;;5076493;28;20025;-70
2020/12/28 02:21:45;;;;;;;10.15;6.53;;;-0.10;74.10;;;;;;5076711;28;20024;-70
2020/12/28 02:24:11;;;;;;;9.20;6.28;;;-0.20;75.50;;;;;;5076703;28;20054;-70
2020/12/28 02:26:37;;;;;;;9.93;5.65;;;-0.20;77.30;;;;;;5076676;28;20082;-70
2020/12/28 02:29:02;;;;;;;8.48;6.28;;;-0.20;77.60;;;;;;5076631;28;20032;-70
2020/12/28 02:31:28;;;;;;;9.43;5.85;;;-0.30;79.50;;;;;;5076384;28;20020;-70
2020/12/28 02:33:54;;;;;;;10.15;6.15;;;-0.30;79.90;;;;;;5076256;28;20033;-71
2020/12/28 02:36:19;;;;;;;9.35;6.70;;;-0.30;80.30;;;;;;5076577;28;20021;-71
2020/12/28 02:38:45;;;;;;;9.15;6.22;;;-0.30;80.50;;;;;;5076294;28;20048;-71
2020/12/28 02:41:10;;;;;;;9.38;6.18;;;-0.30;80.90;;;;;;5076513;28;20021;-71
2020/12/28 02:43:36;;;;;;;8.82;6.32;;;-0.40;82.20;;;;;;5079653;28;20032;-71
2020/12/28 02:46:02;;;;;;;11.23;7.40;;;-0.40;81.90;;;;;;5062307;28;20435;-71
2020/12/28 02:48:28;;;;;;;11.02;6.68;;;-0.40;82.40;;;;;;5079797;28;20075;-71
2020/12/28 02:50:54;;;;;;;10.10;7.00;;;-0.40;82.40;;;;;;5080246;28;20056;-71
2020/12/28 02:53:19;;;;;;;10.25;6.50;;;-0.50;83.60;;;;;;5080031;28;20397;-71
2020/12/28 02:55:45;;;;;;;11.02;6.70;;;-0.60;83.90;;;;;;5079918;28;20032;-71
2020/12/28 02:58:11;;;;;;;10.48;7.35;;;-0.60;84.30;;;;;;5079819;28;20032;-71
2020/12/28 03:00:36;;;;;;;10.02;6.78;;;-0.60;85.20;;;;;;5079994;28;20020;-71
2020/12/28 03:03:02;;;;;;;10.60;6.35;;;-0.60;85.40;;;;;;5079946;28;20320;-71
2020/12/28 03:05:28;;;;;;;9.50;6.97;;;-0.70;85.40;;;;;;5079690;28;20316;-71
2020/12/28 03:07:54;;;;;;;9.90;6.30;;;-0.70;85.90;;;;;;5079684;28;20103;-71
2020/12/28 03:10:20;;;;;;;9.45;5.90;;;-0.80;86.50;;;;;;5079684;28;20036;-71
2020/12/28 03:12:46;;;;;;;9.40;5.95;;;-1.00;86.90;;;;;;5079616;28;20107;-71
2020/12/28 03:15:11;;;;;;;8.35;5.60;;;-1.00;87.50;;;;;;5079440;28;20132;-71
2020/12/28 03:17:37;;;;;;;6.80;4.95;;;-1.00;88.00;;;;;;5079934;28;20036;-71
2020/12/28 03:20:03;;;;;;;7.13;4.47;;;-1.00;88.00;;;;;;5079728;28;20107;-71
2020/12/28 03:22:29;;;;;;;7.57;5.45;;;-0.90;88.00;;;;;;5079484;28;20029;-71
2020/12/28 03:24:54;;;;;;;6.93;4.75;;;-0.90;88.20;;;;;;5061556;28;20025;-71
2020/12/28 03:27:20;;;;;;;6.75;4.85;;;-0.80;88.20;;;;;;5079342;28;20059;-71
2020/12/28 03:29:45;;;;;;;7.03;3.92;;;-0.70;88.20;;;;;;5061543;28;20310;-71
2020/12/28 03:32:11;;;;;;;7.28;4.50;;;-0.70;88.20;;;;;;5079103;28;20025;-71
2020/12/28 03:34:37;;;;;;;6.85;4.45;;;-0.50;87.80;;;;;;5079132;28;20024;-71
2020/12/28 03:37:02;;;;;;;7.07;4.60;;;-0.40;87.30;;;;;;5079185;28;20028;-71
2020/12/28 03:39:28;;;;;;;6.80;3.63;;;-0.30;87.00;;;;;;5079159;28;20013;-71
2020/12/28 03:41:54;;;;;;;6.40;4.25;;;-0.30;86.40;;;;;;5079184;28;20024;-71
2020/12/28 03:44:19;;;;;;;5.10;3.20;;;-0.30;86.90;;;;;;5079055;28;20023;-71
2020/12/28 03:46:45;;;;;;;6.38;3.50;;;-0.30;86.90;;;;;;5079295;28;20040;-71
2020/12/28 03:49:10;;;;;;;5.50;3.30;;;-0.30;86.50;;;;;;5078728;28;20044;-71
2020/12/28 03:51:36;;;;;;;6.15;4.03;;;-0.20;87.10;;;;;;5061172;28;20031;-71
2020/12/28 03:54:02;;;;;;;5.35;3.80;;;-0.20;87.20;;;;;;5077914;28;20068;-71
2020/12/28 03:56:27;;;;;;;4.40;3.08;;;-0.20;87.50;;;;;;5079075;28;20029;-71
2020/12/28 03:58:53;;;;;;;6.22;3.90;;;-0.30;87.20;;;;;;5061041;28;20032;-71
2020/12/28 04:01:19;;;;;;;5.43;3.47;;;-0.40;87.50;;;;;;5078761;28;20367;-71
2020/12/28 04:03:45;;;;;;;6.85;4.05;;;-0.50;87.90;;;;;;5061011;28;20020;-71
2020/12/28 04:06:11;;;;;;;4.85;3.28;;;-0.60;88.90;;;;;;5078567;28;20039;-71
2020/12/28 04:08:36;;;;;;;6.28;3.55;;;-0.70;89.90;;;;;;5078569;28;20059;-71
2020/12/28 04:11:02;;;;;;;6.95;3.75;;;-0.60;89.50;;;;;;5078569;28;20021;-71
2020/12/28 04:13:28;;;;;;;6.95;4.40;;;-0.50;89.00;;;;;;5078475;28;20024;-71
2020/12/28 04:15:53;;;;;;;6.72;4.25;;;-0.40;88.70;;;;;;5078392;28;20031;-71
2020/12/28 04:18:19;;;;;;;6.45;4.28;;;-0.40;88.80;;;;;;5078284;28;20025;-71
2020/12/28 04:20:44;;;;;;;5.70;4.10;;;-0.30;88.80;;;;;;5060637;28;20028;-71
2020/12/28 04:23:10;;;;;;;6.47;4.45;;;-0.40;88.40;;;;;;5078765;28;20116;-72
2020/12/28 04:25:36;;;;;;;6.68;4.40;;;-0.40;88.50;;;;;;5078373;28;20036;-71
2020/12/28 04:28:01;;;;;;;6.70;4.47;;;-0.40;88.80;;;;;;5078304;28;20025;-71
2020/12/28 04:30:27;;;;;;;7.75;4.30;;;-0.50;88.60;;;;;;5078095;28;20056;-72
2020/12/28 04:32:53;;;;;;;6.40;4.57;;;-0.50;88.80;;;;;;5078243;28;20116;-71
2020/12/28 04:35:18;;;;;;;7.57;4.82;;;-0.50;89.00;;;;;;5078158;28;20091;-72
2020/12/28 04:37:44;;;;;;;9.52;4.88;;;-0.40;89.10;;;;;;5078227;28;20468;-71
2020/12/28 04:40:10;;;;;;;4.28;2.28;;;-0.40;89.30;;;;;;5077918;28;20031;-71
2020/12/28 04:42:41;;;;;;;2.83;1.85;;;-0.40;88.90;;;;;;5078128;28;20073;-71
2020/12/28 04:45:07;;;;;;;3.05;1.98;;;-0.50;87.90;;;;;;5078096;28;20032;-71
2020/12/28 04:47:33;;;;;;;2.63;1.95;;;-0.50;88.00;;;;;;5077546;28;20041;-71
2020/12/28 04:49:59;;;;;;;3.67;1.73;;;-0.60;88.50;;;;;;5077917;28;20037;-71
2020/12/28 04:52:27;;;;;;;2.17;1.40;;;-0.60;88.80;;;;;;5077553;28;20108;-71
2020/12/28 04:54:53;;;;;;;1.98;1.33;;;-0.60;89.30;;;;;;5078081;28;20108;-71
2020/12/28 04:57:19;;;;;;;1.95;1.33;;;-0.50;89.70;;;;;;5077759;28;20029;-71
2020/12/28 04:59:45;;;;;;;2.28;1.63;;;-0.50;89.60;;;;;;5077540;28;20024;-71
2020/12/28 05:02:10;;;;;;;2.22;1.58;;;-0.50;89.40;;;;;;5059829;28;20032;-71
2020/12/28 05:04:36;;;;;;;2.92;1.30;;;-0.50;89.50;;;;;;5059314;28;20424;-71
2020/12/28 05:07:05;;;;;;;3.15;2.20;;;-0.40;90.20;;;;;;5077445;28;20020;-71
2020/12/28 05:09:31;;;;;;;3.42;2.60;;;-0.30;89.90;;;;;;5077351;28;20016;-71
2020/12/28 05:12:04;;;;;;;2.97;1.77;;;-0.30;90.20;;;;;;5077281;28;20424;-71
2020/12/28 05:14:31;;;;;;;3.50;2.40;;;-0.20;90.40;;;;;;5077313;28;20324;-72
2020/12/28 05:17:01;;;;;;;3.20;2.67;;;-0.20;90.70;;;;;;5077534;28;20103;-71
2020/12/28 05:19:28;;;;;;;3.42;2.60;;;-0.10;90.80;;;;;;5077190;28;20028;-72
2020/12/28 05:21:55;;;;;;;4.30;3.40;;;-0.10;91.40;;;;;;5077153;28;20025;-72
2020/12/28 05:24:21;;;;;;;4.47;3.90;;;0.00;91.60;;;;;;5059536;28;20102;-72
2020/12/28 05:26:47;;;;;;;4.43;3.38;;;0.00;92.30;;;;;;5077323;28;20032;-72
2020/12/28 05:29:23;;;;;;;4.78;3.45;;;0.00;92.60;;;;;;5077058;28;20107;-72
2020/12/28 05:31:51;;;;;;;4.57;3.65;;;0.10;93.30;;;;;;5077039;28;20043;-72
2020/12/28 05:34:25;;;;;;;6.97;3.53;;;0.20;93.70;;;;;;5076971;28;20366;-72
2020/12/28 05:36:57;;;;;;;3.35;2.88;;;0.20;93.80;;;;;;5076949;28;20107;-72
2020/12/28 05:39:25;;;;;;;3.55;2.97;;;0.30;94.10;;;;;;5077012;28;20028;-72
2020/12/28 05:42:09;;;;;;;3.42;2.90;;;0.40;94.40;;;;;;5076822;28;20074;-72
2020/12/28 05:44:36;;;;;;;2.92;2.40;;;0.40;94.60;;;;;;5077086;28;20035;-72
2020/12/28 05:47:13;;;;;;;2.55;2.33;;;0.50;94.70;;;;;;5076876;28;20020;-72
2020/12/28 05:49:40;;;;;;;2.03;1.80;;;0.50;94.80;;;;;;5076742;28;20036;-72
2020/12/28 05:52:07;;;;;;;1.92;1.60;;;0.50;94.90;;;;;;5076724;28;20116;-72
2020/12/28 05:54:34;;;;;;;2.08;1.60;;;0.60;95.00;;;;;;5077079;28;20013;-72
2020/12/28 05:57:00;;;;;;;1.27;0.90;;;0.60;95.00;;;;;;5058986;28;20033;-72
2020/12/28 05:59:26;;;;;;;1.67;1.23;;;0.60;95.00;;;;;;5076637;28;20075;-72
2020/12/28 06:01:52;;;;;;;1.42;1.13;;;0.60;95.00;;;;;;5077008;28;20020;-72
2020/12/28 06:04:19;;;;;;;1.02;0.63;;;0.70;95.00;;;;;;5058884;28;20312;-73
2020/12/28 06:06:46;;;;;;;2.17;0.95;;;0.70;94.90;;;;;;5058882;28;20028;-73
2020/12/28 06:09:16;;;;;;;1.33;1.08;;;0.70;94.90;;;;;;5076592;28;20478;-73
2020/12/28 06:11:42;;;;;;;1.80;1.02;;;0.80;94.50;;;;;;5076843;28;20315;-73
2020/12/28 06:14:12;;;;;;;1.30;0.98;;;0.80;94.40;;;;;;5076473;28;20020;-73
2020/12/28 06:16:37;;;;;;;0.82;0.60;;;0.80;94.40;;;;;;5077009;28;20040;-73
2020/12/28 06:19:03;;;;;;;0.70;0.43;;;0.90;94.30;;;;;;5080710;28;20075;-73
2020/12/28 06:21:36;;;;;;;0.65;0.43;;;0.90;94.50;;;;;;5080904;28;20117;-73
2020/12/28 06:24:02;;;;;;;0.70;0.50;;;0.90;94.30;;;;;;5080776;28;20025;-73
2020/12/28 06:26:27;;;;;;;0.90;0.40;;;0.80;94.50;;;;;;5080827;28;20032;-73
2020/12/28 06:29:06;;;;;;;0.55;0.40;;;0.90;94.50;;;;;;5080415;28;20024;-73
2020/12/28 06:31:32;;;;;;;0.47;0.30;;;0.90;94.50;;;;;;5080499;28;20027;-73
2020/12/28 06:33:58;;;;;;;1.05;0.45;;;0.90;94.50;;;;;;5080374;28;20027;-73
2020/12/28 06:36:24;;;;;;;0.70;0.40;;;0.90;94.60;;;;;;5080506;28;20024;-72
2020/12/28 06:39:00;;;;;;;0.90;0.52;;;1.00;94.50;;;;;;5080314;28;20029;-73
2020/12/28 06:41:30;;;;;;;0.43;0.35;;;1.00;94.50;;;;;;5080511;28;20028;-73
2020/12/28 06:44:01;;;;;;;0.20;0.20;;;1.00;94.50;;;;;;5062439;28;20024;-73
2020/12/28 06:46:27;;;;;;;0.45;0.20;;;1.00;94.50;;;;;;5080166;28;20298;-73
2020/12/28 06:48:53;;;;;;;0.40;0.30;;;1.00;94.80;;;;;;5079873;28;20561;-72
2020/12/28 06:51:22;;;;;;;0.20;0.20;;;1.00;94.90;;;;;;5080034;28;20036;-72
2020/12/28 06:53:52;;;;;;;0.22;0.20;;;1.00;94.90;;;;;;5080352;28;20032;-72
2020/12/28 06:56:18;;;;;;;0.40;0.28;;;1.00;94.90;;;;;;5080232;28;20037;-72
2020/12/28 06:58:44;;;;;;;0.68;0.40;;;1.10;94.90;;;;;;5062203;28;20040;-72
2020/12/28 07:01:09;;;;;;;0.40;0.30;;;1.10;94.90;;;;;;5079909;28;20029;-72
2020/12/28 07:03:35;;;;;;;0.20;0.10;;;1.10;94.90;;;;;;5079953;28;20024;-72
2020/12/28 07:06:02;;;;;;;0.40;0.25;;;1.10;95.00;;;;;;5079739;28;20025;-72
2020/12/28 07:08:28;;;;;;;0.30;0.20;;;1.20;94.80;;;;;;5062016;28;20029;-72
2020/12/28 07:11:02;;;;;;;0.20;0.20;;;1.20;94.70;;;;;;5079651;28;20302;-73
2020/12/28 07:13:28;;;;;;;0.20;0.20;;;1.20;94.60;;;;;;5079577;28;20363;-72
2020/12/28 07:16:07;;;;;;;0.43;0.30;;;1.20;94.70;;;;;;5079511;28;20013;-73
2020/12/28 07:18:33;;;;;;;0.52;0.30;;;1.20;94.60;;;;;;5061797;28;20056;-73
2020/12/28 07:21:00;;;;;;;22.73;0.95;;;1.20;94.40;;;;;;5079504;28;20066;-73
2020/12/28 07:23:26;;;;;;;0.90;0.50;;;1.20;93.90;;;;;;5079800;28;20058;-72
2020/12/28 07:26:11;;;;;;;1.55;0.70;;;1.20;93.50;;;;;;5079412;28;20037;-73
2020/12/28 07:28:39;;;;;;;1.80;0.82;;;1.10;93.80;;;;;;5079272;28;20028;-73
2020/12/28 07:31:06;;;;;;;0.75;0.52;;;1.10;94.00;;;;;;5079298;28;20034;-73
2020/12/28 07:33:33;;;;;;;0.55;0.50;;;1.00;94.20;;;;;;5079487;28;20026;-73
2020/12/28 07:36:11;;;;;;;129.50;6.72;;;1.00;94.50;;;;;;5061443;28;20329;-73
2020/12/28 07:38:38;;;;;;;323.70;12.27;;;1.00;94.30;;;;;;5061326;28;20052;-73
2020/12/28 07:41:04;;;;;;;1.13;0.77;;;0.90;93.40;;;;;;5061365;28;20103;-73
2020/12/28 07:43:30;;;;;;;0.63;0.40;;;0.80;94.30;;;;;;5079163;28;20035;-73
2020/12/28 07:46:13;;;;;;;0.50;0.45;;;0.90;95.40;;;;;;5079022;28;20025;-73
2020/12/28 07:48:41;;;;;;;0.40;0.22;;;0.90;95.20;;;;;;5061046;28;20135;-73
2020/12/28 07:51:08;;;;;;;0.70;0.30;;;1.00;95.20;;;;;;5061194;28;20346;-73
2020/12/28 07:53:40;;;;;;;0.30;0.20;;;1.10;94.50;;;;;;5078981;28;20332;-73
2020/12/28 07:56:14;;;;;;;0.28;0.20;;;1.20;94.30;;;;;;5078830;28;20085;-73
2020/12/28 07:59:12;;;;;;;0.30;0.20;;;1.20;94.30;;;;;;5078887;28;20107;-73
2020/12/28 08:01:45;;;;;;;0.32;0.20;;;1.20;94.30;;;;;;5064578;28;20048;-73
2020/12/28 08:04:18;;;;;;;0.13;0.13;;;1.40;94.00;;;;;;5060882;28;20032;-73
2020/12/28 08:06:46;;;;;;;0.95;0.50;;;1.50;92.70;;;;;;5060970;28;20111;-73
2020/12/28 08:09:12;;;;;;;0.55;0.40;;;1.50;92.90;;;;;;5078529;28;20029;-73
2020/12/28 08:11:38;;;;;;;0.80;0.20;;;1.50;93.20;;;;;;5060815;28;20035;-73
2020/12/28 08:14:10;;;;;;;1.40;0.30;;;1.40;93.60;;;;;;5078528;28;20028;-73
2020/12/28 08:16:36;;;;;;;0.77;0.50;;;1.50;93.70;;;;;;5060716;28;20314;-73
2020/12/28 08:19:02;;;;;;;0.65;0.45;;;1.60;92.80;;;;;;5078480;28;20055;-73
2020/12/28 08:21:41;;;;;;;1.10;0.70;;;1.60;92.50;;;;;;5078519;28;20021;-73
2020/12/28 08:24:18;;;;;;;0.77;0.40;;;1.40;92.90;;;;;;5078898;28;20028;-73
2020/12/28 08:26:45;;;;;;;0.82;0.30;;;1.40;93.80;;;;;;5078542;28;20107;-73
2020/12/28 08:29:11;;;;;;;0.75;0.60;;;1.50;94.00;;;;;;5078237;28;20426;-73
2020/12/28 08:31:37;;;;;;;0.60;0.40;;;1.40;93.70;;;;;;5060460;28;20025;-72
2020/12/28 08:34:12;;;;;;;0.38;0.20;;;1.40;94.40;;;;;;5078073;28;20078;-72
2020/12/28 08:36:40;;;;;;;0.70;0.40;;;1.40;94.80;;;;;;5078138;28;20024;-73
2020/12/28 08:39:13;;;;;;;0.75;0.20;;;1.40;95.30;;;;;;5059985;28;20112;-72
2020/12/28 08:41:48;;;;;;;0.32;0.20;;;1.50;95.70;;;;;;5077886;28;20464;-72
2020/12/28 08:44:26;;;;;;;0.30;0.25;;;1.70;94.80;;;;;;5077875;28;20032;-73
2020/12/28 08:46:52;;;;;;;0.38;0.20;;;1.90;93.60;;;;;;5077900;28;20029;-74
2020/12/28 08:49:31;;;;;;;0.50;0.30;;;1.90;93.80;;;;;;5077689;28;20523;-76
2020/12/28 08:52:14;;;;;;;0.45;0.30;;;1.90;94.00;;;;;;5060164;28;20108;-77
2020/12/28 08:54:41;;;;;;;0.35;0.20;;;1.80;94.90;;;;;;5078155;28;20115;-76
2020/12/28 08:57:18;;;;;;;0.20;0.20;;;1.90;95.30;;;;;;5059976;28;20070;-73
2020/12/28 08:59:44;;;;;;;0.43;0.22;;;2.00;95.10;;;;;;5059923;28;20435;-73
2020/12/28 09:02:18;;;;;;;0.60;0.30;;;2.10;95.00;;;;;;5059881;28;20021;-73
2020/12/28 09:04:43;;;;;;;0.60;0.40;;;2.30;95.00;;;;;;5077438;28;20111;-73
2020/12/28 09:07:09;;;;;;;0.93;0.40;;;2.20;95.30;;;;;;5059773;28;20115;-73
2020/12/28 09:09:35;;;;;;;0.50;0.30;;;2.20;96.00;;;;;;5077680;28;20025;-73
2020/12/28 09:12:01;;;;;;;0.63;0.40;;;2.20;95.50;;;;;;5077400;28;20021;-73
2020/12/28 09:14:27;;;;;;;1.08;0.30;;;2.00;96.00;;;;;;5077212;28;20329;-72
2020/12/28 09:16:53;;;;;;;0.30;0.20;;;2.00;96.50;;;;;;5077240;28;20359;-72
2020/12/28 09:19:18;;;;;;;0.50;0.30;;;2.20;95.60;;;;;;5077270;28;20020;-72
2020/12/28 09:21:44;;;;;;;0.80;0.30;;;2.30;94.50;;;;;;5077201;28;20435;-73
2020/12/28 09:24:09;;;;;;;0.68;0.30;;;2.20;94.90;;;;;;5077424;28;20103;-72
2020/12/28 09:26:35;;;;;;;0.63;0.40;;;2.30;95.30;;;;;;5077158;28;20028;-72
2020/12/28 09:29:01;;;;;;;0.70;0.35;;;2.30;95.50;;;;;;5077105;28;20021;-73
2020/12/28 09:31:27;;;;;;;0.77;0.40;;;2.30;95.00;;;;;;5077044;28;20048;-72
2020/12/28 09:33:52;;;;;;;0.80;0.30;;;2.30;95.00;;;;;;5076992;28;20024;-72
2020/12/28 09:36:19;;;;;;;1.25;0.40;;;2.30;95.10;;;;;;5077173;28;20029;-73
2020/12/28 09:38:45;;;;;;;0.47;0.32;;;2.40;95.30;;;;;;5077096;28;20021;-72
2020/12/28 09:41:11;;;;;;;5.32;0.40;;;2.30;95.30;;;;;;5077502;28;20024;-72
2020/12/28 09:43:39;;;;;;;0.75;0.30;;;2.30;96.30;;;;;;5059160;28;20412;-73
2020/12/28 09:46:05;;;;;;;0.30;0.20;;;2.50;96.20;;;;;;5076950;28;20032;-73
2020/12/28 09:48:31;;;;;;;2.17;0.40;;;2.60;96.10;;;;;;5076312;28;20462;-72
2020/12/28 09:50:57;;;;;;;0.45;0.20;;;2.70;96.00;;;;;;5058214;28;20420;-72
2020/12/28 09:53:23;;;;;;;1.27;0.40;;;2.70;95.60;;;;;;5076076;28;20089;-73
2020/12/28 09:55:49;;;;;;;0.50;0.30;;;2.80;95.20;;;;;;5058227;28;20370;-73
2020/12/28 09:58:15;;;;;;;1.48;0.40;;;2.80;95.70;;;;;;5058162;28;20024;-73
2020/12/28 10:00:40;;;;;;;0.60;0.28;;;2.80;96.30;;;;;;5075919;28;20367;-73
2020/12/28 10:03:06;;;;;;;0.60;0.30;;;2.90;96.00;;;;;;5058157;28;20021;-72
2020/12/28 10:05:32;;;;;;;0.77;0.40;;;2.90;95.00;;;;;;5075734;28;20431;-73
2020/12/28 10:07:58;;;;;;;0.60;0.30;;;2.90;95.60;;;;;;5057148;28;20029;-73
2020/12/28 10:10:23;;;;;;;0.47;0.25;;;2.90;95.90;;;;;;5086107;28;20026;-72
2020/12/28 10:12:50;;;;;;;0.52;0.32;;;3.00;95.70;;;;;;5077937;28;20320;-72
2020/12/28 10:15:16;;;;;;;3.67;0.20;;;3.00;95.60;;;;;;5077967;28;20070;-72
2020/12/28 10:18:09;;;;;;;0.32;0.20;;;3.00;95.20;;;;;;5095886;28;20017;-72
2020/12/28 10:20:35;;;;;;;0.30;0.20;;;3.00;95.10;;;;;;5077961;28;20020;-72
2020/12/28 10:23:00;;;;;;;0.40;0.20;;;3.00;94.90;;;;;;5096161;28;20025;-72
2020/12/28 10:25:26;;;;;;;0.40;0.20;;;3.00;95.40;;;;;;5096029;28;20430;-72
2020/12/28 10:27:51;;;;;;;0.30;0.20;;;3.10;95.80;;;;;;5095786;28;20016;-72
2020/12/28 10:30:17;;;;;;;0.25;0.17;;;3.10;95.90;;;;;;5095791;28;20027;-72
2020/12/28 10:32:43;;;;;;;0.25;0.20;;;3.10;95.50;;;;;;5095870;28;20020;-72
2020/12/28 10:35:08;;;;;;;0.50;0.20;;;3.10;95.80;;;;;;5095827;28;20028;-72
2020/12/28 10:37:34;;;;;;;0.65;0.30;;;3.00;96.10;;;;;;5095948;28;20308;-72
2020/12/28 10:40:00;;;;;;;0.68;0.30;;;3.00;96.10;;;;;;5095613;28;20060;-72
2020/12/28 10:42:25;;;;;;;0.30;0.20;;;3.00;95.70;;;;;;5095533;28;20069;-72
2020/12/28 10:44:51;;;;;;;0.22;0.15;;;3.00;95.30;;;;;;5095528;28;20024;-72
2020/12/28 10:47:17;;;;;;;0.50;0.30;;;2.90;95.20;;;;;;5052390;28;710798;-72
2020/12/28 10:49:42;;;;;;;0.82;0.17;;;2.80;95.80;;;;;;5096474;28;20026;-72
2020/12/28 10:52:08;;;;;;;4.95;0.30;;;2.70;96.00;;;;;;5096524;28;20028;-72
2020/12/28 10:54:34;;;;;;;0.30;0.15;;;2.70;96.40;;;;;;5096915;28;20063;-72
2020/12/28 10:56:59;;;;;;;1.45;0.35;;;2.60;96.90;;;;;;5096844;28;20119;-72
2020/12/28 10:59:25;;;;;;;2.22;0.28;;;2.60;96.60;;;;;;5096358;28;20028;-72
2020/12/28 11:01:51;;;;;;;0.45;0.22;;;2.60;96.50;;;;;;5078460;28;20039;-72
2020/12/28 11:04:16;;;;;;;0.50;0.28;;;2.60;96.40;;;;;;5099289;28;20020;-72
2020/12/28 11:06:42;;;;;;;1.95;0.30;;;2.50;96.80;;;;;;5100098;28;20024;-72
2020/12/28 11:09:08;;;;;;;1.98;0.35;;;2.50;97.20;;;;;;5100213;28;20106;-72
2020/12/28 11:11:33;;;;;;;1.10;0.40;;;2.70;97.50;;;;;;5099996;28;20327;-72
2020/12/28 11:13:59;;;;;;;0.73;0.40;;;2.90;97.50;;;;;;5099946;28;20032;-72
2020/12/28 11:16:26;;;;;;;3.25;0.60;;;2.90;97.30;;;;;;5099962;28;20028;-72
2020/12/28 11:18:51;;;;;;;2.72;0.63;;;3.00;98.00;;;;;;5099898;28;20034;-72
2020/12/28 11:21:17;;;;;;;1.58;0.40;;;3.10;98.00;;;;;;5099846;28;20371;-72
2020/12/28 11:23:59;;;;;;;0.90;0.45;;;3.20;98.00;;;;;;5100065;28;20026;-73
2020/12/28 11:26:26;;;;;;;3.88;0.52;;;3.30;98.00;;;;;;5100343;28;20320;-72
2020/12/28 11:28:52;;;;;;;1.75;0.40;;;3.30;97.70;;;;;;5099616;28;20431;-73
2020/12/28 11:31:18;;;;;;;2.55;0.40;;;3.20;97.60;;;;;;5099645;28;20093;-72
2020/12/28 11:33:45;;;;;;;0.40;0.20;;;3.30;97.90;;;;;;5099728;28;20039;-72
2020/12/28 11:36:12;;;;;;;1.73;0.25;;;3.40;98.00;;;;;;5099530;28;20370;-72
2020/12/28 11:38:38;;;;;;;1.20;0.38;;;3.50;98.00;;;;;;5099507;28;20047;-72
2020/12/28 11:41:05;;;;;;;2.47;0.30;;;3.60;97.20;;;;;;5099452;28;20031;-73
2020/12/28 11:43:31;;;;;;;0.95;0.40;;;3.60;97.00;;;;;;5099556;28;20134;-73
2020/12/28 11:45:57;;;;;;;1.25;0.40;;;3.50;96.80;;;;;;5099328;28;20099;-73
2020/12/28 11:48:23;;;;;;;1.08;0.40;;;3.40;97.60;;;;;;5099051;28;20389;-72
2020/12/28 11:50:49;;;;;;;1.27;0.52;;;3.40;98.00;;;;;;5099180;28;20036;-72
2020/12/28 11:53:15;;;;;;;2.50;0.57;;;3.40;98.00;;;;;;5099459;28;20035;-72
2020/12/28 11:56:01;;;;;;;2.90;1.23;;;3.50;98.00;;;;;;5099344;28;20028;-72
2020/12/28 11:58:27;;;;;;;0.43;0.30;;;3.60;98.00;;;;;;5099153;28;20071;-72
2020/12/28 12:00:53;;;;;;;4.00;0.55;;;3.60;98.00;;;;;;5099217;28;20020;-73
2020/12/28 12:03:19;;;;;;;1.95;0.40;;;3.50;98.00;;;;;;5099231;28;20058;-72
2020/12/28 12:05:45;;;;;;;4.57;0.50;;;3.60;98.00;;;;;;5098967;28;20060;-72
2020/12/28 12:08:10;;;;;;;0.93;0.43;;;3.70;98.00;;;;;;5098964;28;20069;-72
2020/12/28 12:10:36;;;;;;;1.92;0.47;;;3.80;98.00;;;;;;5098866;28;20348;-72
2020/12/28 12:13:02;;;;;;;0.52;0.20;;;3.70;98.00;;;;;;5098755;28;20028;-73
2020/12/28 12:15:28;;;;;;;1.02;0.45;;;3.80;98.00;;;;;;5097602;28;20355;-73
2020/12/28 12:17:53;;;;;;;1.75;0.30;;;3.80;98.00;;;;;;5098953;28;20443;-73
2020/12/28 12:20:19;;;;;;;2.15;0.40;;;3.80;98.00;;;;;;5098727;28;20078;-72
2020/12/28 12:22:45;;;;;;;1.27;0.25;;;3.80;98.00;;;;;;5080618;28;20035;-72
2020/12/28 12:25:10;;;;;;;1.65;0.35;;;3.70;98.00;;;;;;5098808;28;20032;-73
2020/12/28 12:27:36;;;;;;;3.20;0.38;;;3.70;98.00;;;;;;5098557;28;20032;-72
2020/12/28 12:30:03;;;;;;;1.98;0.30;;;3.70;98.00;;;;;;5098503;28;20032;-73
2020/12/28 12:32:29;;;;;;;2.88;0.60;;;3.80;98.00;;;;;;5098667;28;20028;-73
2020/12/28 12:34:55;;;;;;;3.03;0.43;;;4.00;98.00;;;;;;5080415;28;20472;-73
2020/12/28 12:37:20;;;;;;;2.35;0.40;;;4.00;98.00;;;;;;5098368;28;20027;-72
2020/12/28 12:39:46;;;;;;;0.80;0.30;;;4.10;98.00;;;;;;5080381;28;20020;-73
2020/12/28 12:42:12;;;;;;;4.28;0.52;;;4.10;98.00;;;;;;5098225;28;20430;-73
2020/12/28 12:44:39;;;;;;;1.95;0.75;;;4.20;98.00;;;;;;5098199;28;20308;-73
2020/12/28 12:47:05;;;;;;;2.92;0.70;;;4.10;98.00;;;;;;5098196;28;20408;-72
2020/12/28 12:49:31;;;;;;;2.67;0.30;;;4.10;98.00;;;;;;5097915;28;20054;-72
2020/12/28 12:52:20;;;;;;;8.90;0.50;;;4.20;98.00;;;;;;5098291;28;20026;-72